createdAt,value
2023-05-06T00:00:30.755Z,100607.91
2023-05-06T00:03:32.810Z,100602.19
2023-05-06T00:06:37.421Z,100599.66
2023-05-06T00:09:39.123Z,100599.25
2023-05-06T00:12:41.044Z,100606.37
2023-05-06T00:15:42.950Z,100608.34
2023-05-06T00:18:46.608Z,100588.81
2023-05-06T00:21:48.251Z,100594.34
2023-05-06T00:24:50.103Z,100596.41
2023-05-06T00:27:53.639Z,100600.47
2023-05-06T00:30:55.337Z,100593.97
2023-05-06T00:33:57.046Z,100594.53
2023-05-06T00:36:58.719Z,100604.06
2023-05-06T00:40:00.492Z,100599.28
2023-05-06T00:43:02.642Z,100598.34
2023-05-06T00:46:05.628Z,100595.53
2023-05-06T00:49:07.492Z,100598.19
2023-05-06T00:52:09.719Z,100597.13
2023-05-06T00:55:11.760Z,100603.56
2023-05-06T00:58:14.623Z,100601.97
2023-05-06T01:01:17.501Z,100604.94
2023-05-06T01:04:20.313Z,100599.13
2023-05-06T01:07:40.557Z,100599.87
2023-05-06T01:11:09.854Z,100610.88
2023-05-06T01:14:55.724Z,100610.06
2023-05-06T01:18:01.043Z,100615.50
2023-05-06T01:21:05.370Z,100612.44
2023-05-06T01:24:07.405Z,100615.97
2023-05-06T01:27:10.673Z,100616.34
2023-05-06T01:30:14.470Z,100622.59
2023-05-06T01:33:40.852Z,100620.00
2023-05-06T01:36:57.704Z,100618.81
2023-05-06T01:40:00.819Z,100621.56
2023-05-06T01:43:05.860Z,100618.53
2023-05-06T01:46:13.733Z,100617.03
2023-05-06T01:49:18.394Z,100612.03
2023-05-06T01:52:21.971Z,100606.28
2023-05-06T01:55:23.649Z,100606.59
2023-05-06T01:58:25.426Z,100604.47
2023-05-06T02:01:27.318Z,100605.06
2023-05-06T02:04:29.063Z,100607.72
2023-05-06T02:07:30.841Z,100603.03
2023-05-06T02:10:32.655Z,100601.69
2023-05-06T02:13:34.406Z,100596.56
2023-05-06T02:16:36.270Z,100600.75
2023-05-06T02:19:40.091Z,100601.56
2023-05-06T02:22:42.809Z,100598.34
2023-05-06T02:25:44.478Z,100590.44
2023-05-06T02:28:48.232Z,100594.62
2023-05-06T02:31:52.095Z,100589.44
2023-05-06T02:34:54.811Z,100595.16
2023-05-06T02:37:57.630Z,100593.72
2023-05-06T02:41:00.319Z,100596.44
2023-05-06T02:44:01.980Z,100589.97
2023-05-06T02:47:03.772Z,100589.72
2023-05-06T02:50:06.035Z,100585.63
2023-05-06T02:53:09.011Z,100587.53
2023-05-06T02:56:10.721Z,100591.44
2023-05-06T02:59:12.419Z,100592.53
2023-05-06T03:02:14.090Z,100593.31
2023-05-06T03:05:15.894Z,100601.91
2023-05-06T03:08:17.619Z,100599.63
2023-05-06T03:11:19.296Z,100604.84
2023-05-06T03:14:21.979Z,100605.34
2023-05-06T03:17:24.759Z,100603.75
2023-05-06T03:20:28.774Z,100606.75
2023-05-06T03:23:30.824Z,100599.59
2023-05-06T03:26:33.511Z,100604.84
2023-05-06T03:29:35.373Z,100605.22
2023-05-06T03:32:38.461Z,100606.94
2023-05-06T03:35:40.522Z,100607.16
2023-05-06T03:38:43.412Z,100606.09
2023-05-06T03:41:45.069Z,100603.72
2023-05-06T03:44:47.777Z,100609.69
2023-05-06T03:47:49.534Z,100616.09
2023-05-06T03:50:51.708Z,100608.28
2023-05-06T03:53:54.842Z,100616.56
2023-05-06T03:56:56.675Z,100614.75
2023-05-06T03:59:58.405Z,100617.00
2023-05-06T04:03:00.149Z,100619.41
2023-05-06T04:06:01.942Z,100614.16
2023-05-06T04:09:06.374Z,100613.03
2023-05-06T04:12:08.118Z,100614.16
2023-05-06T04:15:10.690Z,100619.31
2023-05-06T04:18:18.887Z,100618.00
2023-05-06T04:21:20.721Z,100614.22
2023-05-06T04:24:23.035Z,100617.06
2023-05-06T04:27:26.646Z,100613.06
2023-05-06T04:30:28.428Z,100610.72
2023-05-06T04:33:30.183Z,100606.69
2023-05-06T04:36:31.897Z,100607.81
2023-05-06T04:39:34.323Z,100613.16
2023-05-06T04:42:36.011Z,100620.41
2023-05-06T04:45:37.946Z,100616.56
2023-05-06T04:48:39.718Z,100624.19
2023-05-06T04:51:41.540Z,100623.94
2023-05-06T04:54:45.389Z,100616.59
2023-05-06T04:57:47.363Z,100617.47
2023-05-06T05:00:49.065Z,100614.94
2023-05-06T05:03:50.848Z,100618.44
2023-05-06T05:06:52.749Z,100621.88
2023-05-06T05:09:56.492Z,100621.88
2023-05-06T05:12:58.485Z,100621.06
2023-05-06T05:16:01.145Z,100628.78
2023-05-06T05:19:03.913Z,100626.81
2023-05-06T05:22:06.177Z,100620.56
2023-05-06T05:25:08.777Z,100629.22
2023-05-06T05:28:10.510Z,100631.16
2023-05-06T05:31:12.244Z,100628.94
2023-05-06T05:34:13.988Z,100629.63
2023-05-06T05:37:15.630Z,100631.31
2023-05-06T05:40:17.244Z,100629.47
2023-05-06T05:43:21.361Z,100629.34
2023-05-06T05:46:23.070Z,100633.28
2023-05-06T05:49:24.854Z,100630.97
2023-05-06T05:52:26.567Z,100631.31
2023-05-06T05:55:29.613Z,100637.34
2023-05-06T05:58:31.394Z,100634.84
2023-05-06T06:01:33.173Z,100640.34
2023-05-06T06:04:35.080Z,100641.31
2023-05-06T06:07:36.960Z,100645.88
2023-05-06T06:10:38.669Z,100639.44
2023-05-06T06:13:40.381Z,100643.84
2023-05-06T06:16:42.249Z,100644.69
2023-05-06T06:19:47.172Z,100646.22
2023-05-06T06:22:48.908Z,100646.78
2023-05-06T06:25:50.735Z,100645.66
2023-05-06T06:28:52.483Z,100645.22
2023-05-06T06:31:58.365Z,100661.31
2023-05-06T06:35:00.148Z,100654.28
2023-05-06T06:38:02.995Z,100656.12
2023-05-06T06:41:04.899Z,100659.53
2023-05-06T06:44:06.664Z,100668.72
2023-05-06T06:47:08.349Z,100654.72
2023-05-06T06:50:10.559Z,100656.50
2023-05-06T06:53:12.318Z,100663.53
2023-05-06T06:56:14.025Z,100660.00
2023-05-06T06:59:15.838Z,100653.84
2023-05-06T07:02:17.545Z,100650.16
2023-05-06T07:05:19.354Z,100652.94
2023-05-06T07:08:22.357Z,100644.03
2023-05-06T07:11:24.003Z,100646.47
2023-05-06T07:14:25.914Z,100643.84
2023-05-06T07:17:27.672Z,100641.28
2023-05-06T07:20:30.822Z,100642.16
2023-05-06T07:23:32.520Z,100629.91
2023-05-06T07:26:37.903Z,100638.94
2023-05-06T07:29:39.609Z,100639.88
2023-05-06T07:32:41.458Z,100627.44
2023-05-06T07:35:43.282Z,100637.94
2023-05-06T07:38:45.227Z,100645.94
2023-05-06T07:41:48.039Z,100642.84
2023-05-06T07:44:49.665Z,100639.28
2023-05-06T07:47:57.509Z,100646.13
2023-05-06T07:51:00.995Z,100636.59
2023-05-06T07:54:03.878Z,100634.75
2023-05-06T07:57:06.643Z,100634.22
2023-05-06T08:00:10.193Z,100634.53
2023-05-06T08:03:12.128Z,100636.84
2023-05-06T08:06:13.925Z,100653.72
2023-05-06T08:09:22.571Z,100646.09
2023-05-06T08:12:25.030Z,100661.03
2023-05-06T08:15:26.825Z,100651.00
2023-05-06T08:18:28.526Z,100657.91
2023-05-06T08:21:30.913Z,100660.03
2023-05-06T08:24:32.664Z,100666.31
2023-05-06T08:27:36.790Z,100662.16
2023-05-06T08:30:38.503Z,100661.78
2023-05-06T08:33:40.207Z,100665.34
2023-05-06T08:36:41.852Z,100663.00
2023-05-06T08:39:45.385Z,100664.37
2023-05-06T08:42:48.266Z,100662.72
2023-05-06T08:45:50.595Z,100662.06
2023-05-06T08:48:52.986Z,100668.72
2023-05-06T08:51:55.409Z,100667.44
2023-05-06T08:55:01.632Z,100666.03
2023-05-06T08:58:07.074Z,100666.09
2023-05-06T09:01:09.383Z,100660.37
2023-05-06T09:04:11.772Z,100649.59
2023-05-06T09:07:13.468Z,100649.94
2023-05-06T09:10:15.604Z,100651.91
2023-05-06T09:13:19.531Z,100649.47
2023-05-06T09:16:30.827Z,100645.88
2023-05-06T09:19:32.576Z,100649.94
2023-05-06T09:22:34.314Z,100654.66
2023-05-06T09:25:37.401Z,100640.03
2023-05-06T09:28:39.680Z,100637.84
2023-05-06T09:31:46.634Z,100647.19
2023-05-06T09:34:49.036Z,100630.31
2023-05-06T09:37:51.821Z,100628.25
2023-05-06T09:40:53.466Z,100629.72
2023-05-06T09:43:56.407Z,100628.56
2023-05-06T09:46:58.156Z,100627.06
2023-05-06T09:50:01.342Z,100618.25
2023-05-06T09:53:04.784Z,100615.59
2023-05-06T09:56:07.848Z,100598.97
2023-05-06T09:59:11.080Z,100603.56
2023-05-06T10:02:15.855Z,100592.47
2023-05-06T10:05:18.342Z,100590.72
2023-05-06T10:08:23.476Z,100578.94
2023-05-06T10:11:26.334Z,100578.22
2023-05-06T10:14:29.258Z,100568.03
2023-05-06T10:17:32.876Z,100568.97
2023-05-06T10:20:36.347Z,100562.72
2023-05-06T10:23:49.132Z,100557.75
2023-05-06T10:26:53.237Z,100567.34
2023-05-06T10:29:59.595Z,100548.38
2023-05-06T10:33:11.925Z,100547.50
2023-05-06T10:36:20.470Z,100547.78
2023-05-06T10:39:22.320Z,100545.19
2023-05-06T10:42:30.362Z,100529.91
2023-05-06T10:46:10.852Z,100523.75
2023-05-06T10:49:13.802Z,100522.44
2023-05-06T10:52:17.020Z,100516.97
2023-05-06T10:55:27.762Z,100520.62
2023-05-06T10:58:36.095Z,100524.13
2023-05-06T11:01:42.709Z,100516.53
2023-05-06T11:04:50.926Z,100514.97
2023-05-06T11:08:09.129Z,100510.81
2023-05-06T11:11:47.862Z,100503.38
2023-05-06T11:14:49.657Z,100498.63
2023-05-06T11:17:53.241Z,100502.44
2023-05-06T11:21:01.027Z,100502.06
2023-05-06T11:24:02.688Z,100495.19
2023-05-06T11:27:04.385Z,100493.97
2023-05-06T11:30:14.798Z,100499.88
2023-05-06T11:33:20.016Z,100491.00
2023-05-06T11:36:21.906Z,100492.78
2023-05-06T11:39:23.665Z,100489.03
2023-05-06T11:42:27.126Z,100487.03
2023-05-06T11:45:40.873Z,100481.28
2023-05-06T11:48:45.906Z,100483.81
2023-05-06T11:51:49.390Z,100484.19
2023-05-06T11:54:53.661Z,100489.53
2023-05-06T11:57:55.361Z,100478.34
2023-05-06T12:00:59.912Z,100477.78
2023-05-06T12:04:02.320Z,100475.34
2023-05-06T12:07:05.870Z,100482.81
2023-05-06T12:10:08.673Z,100479.91
2023-05-06T12:13:10.816Z,100479.22
2023-05-06T12:16:13.152Z,100475.28
2023-05-06T12:19:18.745Z,100473.56
2023-05-06T12:22:23.048Z,100472.91
2023-05-06T12:25:24.701Z,100469.69
2023-05-06T12:28:26.991Z,100480.53
2023-05-06T12:31:28.777Z,100478.84
2023-05-06T12:34:38.628Z,100481.78
2023-05-06T12:37:40.320Z,100463.44
2023-05-06T12:40:43.759Z,100458.28
2023-05-06T12:43:45.869Z,100454.50
2023-05-06T12:46:52.625Z,100456.19
2023-05-06T12:49:59.096Z,100453.69
2023-05-06T12:53:02.145Z,100454.03
2023-05-06T12:56:04.479Z,100466.25
2023-05-06T12:59:06.416Z,100449.91
2023-05-06T13:02:08.570Z,100449.88
2023-05-06T13:05:10.388Z,100451.03
2023-05-06T13:08:12.134Z,100451.03
2023-05-06T13:11:13.871Z,100437.94
2023-05-06T13:14:16.393Z,100441.56
2023-05-06T13:17:18.184Z,100432.50
2023-05-06T13:20:20.054Z,100435.41
2023-05-06T13:23:22.004Z,100426.56
2023-05-06T13:26:23.790Z,100425.91
2023-05-06T13:29:25.510Z,100427.19
2023-05-06T13:32:27.225Z,100421.28
2023-05-06T13:35:30.499Z,100428.38
2023-05-06T13:38:32.405Z,100419.28
2023-05-06T13:41:34.509Z,100409.94
2023-05-06T13:44:36.340Z,100405.44
2023-05-06T13:47:38.073Z,100403.00
2023-05-06T13:50:47.361Z,100396.25
2023-05-06T13:53:49.089Z,100398.53
2023-05-06T13:56:50.792Z,100391.06
2023-05-06T13:59:53.513Z,100395.78
2023-05-06T14:02:55.227Z,100392.19
2023-05-06T14:05:57.411Z,100387.09
2023-05-06T14:09:00.173Z,100385.25
2023-05-06T14:12:02.898Z,100377.66
2023-05-06T14:15:08.850Z,100379.41
2023-05-06T14:18:10.938Z,100380.97
2023-05-06T14:21:12.653Z,100376.28
2023-05-06T14:24:14.395Z,100374.31
2023-05-06T14:27:16.416Z,100375.69
2023-05-06T14:30:18.633Z,100364.22
2023-05-06T14:33:20.386Z,100363.31
2023-05-06T14:36:22.116Z,100360.69
2023-05-06T14:39:23.778Z,100371.59
2023-05-06T14:42:25.690Z,100360.69
2023-05-06T14:45:27.825Z,100364.12
2023-05-06T14:48:29.609Z,100364.34
2023-05-06T14:51:32.446Z,100360.00
2023-05-06T14:54:34.295Z,100357.22
2023-05-06T14:57:36.702Z,100352.59
2023-05-06T15:00:38.536Z,100356.00
2023-05-06T15:03:40.254Z,100343.44
2023-05-06T15:06:41.932Z,100351.06
2023-05-06T15:09:44.618Z,100350.78
2023-05-06T15:12:50.415Z,100351.84
2023-05-06T15:15:54.118Z,100360.16
2023-05-06T15:18:57.976Z,100359.37
2023-05-06T15:22:01.833Z,100355.84
2023-05-06T15:25:03.800Z,100366.81
2023-05-06T15:28:08.393Z,100392.91
2023-05-06T15:31:10.039Z,100396.13
2023-05-06T15:34:12.466Z,100394.88
2023-05-06T15:37:15.967Z,100397.06
2023-05-06T15:40:17.694Z,100401.72
2023-05-06T15:43:23.315Z,100410.03
2023-05-06T15:46:29.528Z,100407.59
2023-05-06T15:49:51.392Z,100410.13
2023-05-06T15:52:56.212Z,100418.94
2023-05-06T15:56:07.198Z,100415.50
2023-05-06T15:59:15.332Z,100422.47
2023-05-06T16:05:22.994Z,100415.59
2023-05-06T16:08:25.272Z,100416.53
2023-05-06T16:11:26.878Z,100420.91
2023-05-06T16:14:30.837Z,100420.03
2023-05-06T16:17:38.126Z,100414.81
2023-05-06T16:20:41.432Z,100420.22
2023-05-06T16:23:44.161Z,100415.84
2023-05-06T16:26:45.875Z,100413.22
2023-05-06T16:29:48.653Z,100419.41
2023-05-06T16:32:50.361Z,100416.75
2023-05-06T16:35:52.049Z,100420.28
2023-05-06T16:38:53.769Z,100421.16
2023-05-06T16:41:56.516Z,100428.16
2023-05-06T16:44:58.183Z,100420.84
2023-05-06T16:47:59.910Z,100420.63
2023-05-06T16:51:07.399Z,100426.87
2023-05-06T16:54:11.146Z,100420.94
2023-05-06T16:57:13.890Z,100424.41
2023-05-06T17:00:16.817Z,100424.38
2023-05-06T17:03:19.706Z,100428.88
2023-05-06T17:06:24.790Z,100423.47
2023-05-06T17:09:26.515Z,100420.91
2023-05-06T17:12:28.356Z,100436.87
2023-05-06T17:15:31.191Z,100430.69
2023-05-06T17:18:32.921Z,100436.00
2023-05-06T17:21:42.343Z,100430.69
2023-05-06T17:24:44.022Z,100441.44
2023-05-06T17:27:46.850Z,100442.44
2023-05-06T17:30:48.579Z,100444.16
2023-05-06T17:33:50.382Z,100438.00
2023-05-06T17:36:53.221Z,100442.31
2023-05-06T17:39:54.979Z,100445.94
2023-05-06T17:42:56.648Z,100445.12
2023-05-06T17:45:58.422Z,100447.78
2023-05-06T17:49:00.130Z,100445.06
2023-05-06T17:52:02.022Z,100446.66
2023-05-06T17:55:15.520Z,100445.09
2023-05-06T17:58:18.315Z,100449.59
2023-05-06T18:01:20.046Z,100448.72
2023-05-06T18:04:21.771Z,100461.94
2023-05-06T18:07:23.459Z,100458.41
2023-05-06T18:10:25.863Z,100457.53
2023-05-06T18:13:27.751Z,100456.63
2023-05-06T18:16:29.523Z,100462.78
2023-05-06T18:19:31.239Z,100455.72
2023-05-06T18:22:32.988Z,100453.06
2023-05-06T18:25:34.721Z,100457.50
2023-05-06T18:28:37.878Z,100454.88
2023-05-06T18:31:39.718Z,100439.06
2023-05-06T18:34:41.692Z,100447.84
2023-05-06T18:37:43.344Z,100453.13
2023-05-06T18:40:47.952Z,100441.69
2023-05-06T18:43:49.690Z,100442.53
2023-05-06T18:46:51.338Z,100446.94
2023-05-06T18:49:53.502Z,100456.63
2023-05-06T18:52:55.206Z,100459.19
2023-05-06T18:55:56.881Z,100458.31
2023-05-06T18:58:59.775Z,100459.16
2023-05-06T19:02:03.153Z,100465.09
2023-05-06T19:05:07.216Z,100468.69
2023-05-06T19:08:10.193Z,100461.38
2023-05-06T19:11:16.053Z,100456.28
2023-05-06T19:14:17.775Z,100453.69
2023-05-06T19:17:19.438Z,100457.25
2023-05-06T19:20:21.292Z,100454.63
2023-05-06T19:23:23.177Z,100464.13
2023-05-06T19:26:26.578Z,100464.03
2023-05-06T19:29:28.636Z,100470.34
2023-05-06T19:32:32.673Z,100463.41
2023-05-06T19:35:38.097Z,100466.56
2023-05-06T19:38:39.876Z,100457.94
2023-05-06T19:41:41.677Z,100462.44
2023-05-06T19:44:43.523Z,100460.53
2023-05-06T19:47:45.321Z,100463.16
2023-05-06T19:50:47.057Z,100461.38
2023-05-06T19:53:49.150Z,100457.59
2023-05-06T19:56:51.170Z,100460.09
2023-05-06T19:59:54.381Z,100459.53
2023-05-06T20:03:00.273Z,100461.22
2023-05-06T20:06:02.301Z,100468.66
2023-05-06T20:09:04.881Z,100474.25
2023-05-06T20:12:06.990Z,100472.69
2023-05-06T20:15:10.624Z,100460.97
2023-05-06T20:18:12.614Z,100452.38
2023-05-06T20:21:17.217Z,100455.91
2023-05-06T20:24:20.142Z,100457.66
2023-05-06T20:27:21.816Z,100459.41
2023-05-06T20:30:23.651Z,100462.72
2023-05-06T20:33:25.469Z,100459.97
2023-05-06T20:36:27.236Z,100452.16
2023-05-06T20:39:28.951Z,100450.13
2023-05-06T20:42:30.810Z,100455.31
2023-05-06T20:45:32.561Z,100444.19
2023-05-06T20:48:34.351Z,100446.00
2023-05-06T20:51:36.384Z,100455.28
2023-05-06T20:54:38.085Z,100448.69
2023-05-06T20:57:45.583Z,100452.84
2023-05-06T21:00:47.385Z,100457.47
2023-05-06T21:03:50.296Z,100460.09
2023-05-06T21:06:52.108Z,100472.19
2023-05-06T21:09:53.840Z,100464.34
2023-05-06T21:12:55.662Z,100464.97
2023-05-06T21:15:57.735Z,100470.97
2023-05-06T21:19:00.864Z,100464.97
2023-05-06T21:22:02.682Z,100457.97
2023-05-06T21:25:05.310Z,100466.84
2023-05-06T21:28:07.143Z,100463.56
2023-05-06T21:31:08.844Z,100472.91
2023-05-06T21:34:10.748Z,100471.28
2023-05-06T21:37:12.598Z,100469.34
2023-05-06T21:40:14.538Z,100469.59
2023-05-06T21:43:18.098Z,100482.66
2023-05-06T21:46:19.875Z,100473.66
2023-05-06T21:49:22.369Z,100474.53
2023-05-06T21:52:24.710Z,100477.75
2023-05-06T21:55:27.784Z,100476.69
2023-05-06T21:58:29.606Z,100481.66
2023-05-06T22:01:32.096Z,100479.78
2023-05-06T22:04:33.839Z,100486.91
2023-05-06T22:07:36.015Z,100490.47
2023-05-06T22:10:37.723Z,100491.44
2023-05-06T22:13:39.427Z,100503.09
2023-05-06T22:16:41.596Z,100496.38
2023-05-06T22:19:43.377Z,100495.28
2023-05-06T22:22:45.613Z,100486.69
2023-05-06T22:25:47.315Z,100484.87
2023-05-06T22:28:49.009Z,100481.19
2023-05-06T22:31:50.852Z,100476.09
2023-05-06T22:34:52.695Z,100482.13
2023-05-06T22:37:54.377Z,100471.37
2023-05-06T22:40:56.123Z,100476.59
2023-05-06T22:44:01.901Z,100465.62
2023-05-06T22:47:03.599Z,100475.88
2023-05-06T22:50:06.948Z,100474.66
2023-05-06T22:53:15.130Z,100473.03
2023-05-06T22:56:19.034Z,100471.56
2023-05-06T22:59:20.843Z,100462.97
2023-05-06T23:02:22.690Z,100457.25
2023-05-06T23:05:24.426Z,100460.16
2023-05-06T23:08:26.211Z,100458.47
2023-05-06T23:11:27.933Z,100444.59
2023-05-06T23:14:29.634Z,100443.53
2023-05-06T23:17:32.115Z,100435.69
2023-05-06T23:20:33.997Z,100434.84
2023-05-06T23:23:35.823Z,100426.56
2023-05-06T23:26:37.520Z,100432.75
2023-05-06T23:29:39.221Z,100435.41
2023-05-06T23:32:41.065Z,100435.03
2023-05-06T23:35:42.830Z,100444.22
2023-05-06T23:38:44.582Z,100451.84
2023-05-06T23:41:46.309Z,100455.22
2023-05-06T23:44:48.287Z,100454.28
2023-05-06T23:47:50.078Z,100461.34
2023-05-06T23:50:52.000Z,100456.06
2023-05-06T23:53:53.716Z,100459.56
2023-05-06T23:56:55.914Z,100453.56
2023-05-06T23:59:57.726Z,100458.78
